Time;durP1;ratioP1;P1;durP2;ratioP2;P2;SDS_P1;SDS_P2;PMS_P1;PMS_P2;Temp;Humidity;BMP_temperature;BMP_pressure;BME280_temperature;BME280_humidity;BME280_pressure;Samples;Min_cycle;Max_cycle;Signal;HPM_P1;HPM_P2
2022/05/24 00:00:18;;;;;;;12.45;9.63;;;;;;;11.58;69.14;100173.11;1673110;84;26011;-81
2022/05/24 00:02:46;;;;;;;16.17;10.20;;;;;;;11.56;69.20;100175.68;1665768;84;26074;-80
2022/05/24 00:05:15;;;;;;;16.42;9.63;;;;;;;11.54;69.30;100167.84;1664348;84;25881;-80
2022/05/24 00:07:42;;;;;;;16.32;10.50;;;;;;;11.54;69.22;100171.03;1673659;84;25744;-80
2022/05/24 00:10:13;;;;;;;16.20;10.10;;;;;;;11.53;69.28;100172.87;1664521;84;27432;-80
2022/05/24 00:12:39;;;;;;;18.17;10.43;;;;;;;11.52;69.20;100162.37;1676279;84;25885;-81
2022/05/24 00:15:28;;;;;;;12.55;9.10;;;;;;;11.53;69.12;100168.86;1676195;84;25933;-80
2022/05/24 00:17:59;;;;;;;15.95;9.60;;;;;;;11.52;69.09;100170.41;1656586;84;25950;-80
2022/05/24 00:20:30;;;;;;;16.40;11.35;;;;;;;11.47;69.03;100167.50;1680877;84;25843;-81
2022/05/24 00:22:58;;;;;;;17.32;11.18;;;;;;;11.46;69.14;100160.50;1662493;84;27699;-81
2022/05/24 00:25:26;;;;;;;15.80;11.00;;;;;;;11.39;69.45;100156.46;1674133;84;25926;-80
2022/05/24 00:27:53;;;;;;;16.15;11.03;;;;;;;11.35;69.82;100153.88;1652612;84;25878;-81
2022/05/24 00:30:21;;;;;;;16.35;10.58;;;;;;;11.33;69.84;100152.42;1661632;84;26625;-80
2022/05/24 00:32:47;;;;;;;17.35;10.60;;;;;;;11.30;69.92;100157.66;1674471;84;26081;-80
2022/05/24 00:35:15;;;;;;;14.53;10.28;;;;;;;11.27;70.12;100158.05;1682656;84;27401;-81
2022/05/24 00:37:44;;;;;;;18.92;11.05;;;;;;;11.25;70.07;100151.23;1673823;84;25763;-81
2022/05/24 00:40:19;;;;;;;13.58;9.55;;;;;;;11.22;70.28;100145.80;1670769;84;25341;-81
2022/05/24 00:42:47;;;;;;;15.08;10.68;;;;;;;11.20;70.23;100143.00;1640153;86;25941;-80
2022/05/24 00:45:33;;;;;;;14.10;10.63;;;;;;;11.19;70.34;100151.55;1677098;84;25809;-80
2022/05/24 00:48:05;;;;;;;15.13;9.93;;;;;;;11.19;70.61;100156.91;1659546;85;27728;-80
2022/05/24 00:50:36;;;;;;;15.88;9.95;;;;;;;11.19;70.49;100156.91;1676242;84;25945;-80
2022/05/24 00:53:23;;;;;;;16.30;9.85;;;;;;;11.19;70.53;100164.11;1675392;84;25547;-80
2022/05/24 00:56:14;;;;;;;13.60;10.18;;;;;;;11.15;70.51;100166.89;1674849;84;25863;-81
2022/05/24 00:59:00;;;;;;;14.25;10.40;;;;;;;11.16;70.62;100165.33;1665539;84;25863;-81
2022/05/24 01:01:41;;;;;;;13.80;9.75;;;;;;;11.15;70.77;100164.20;1674713;84;28340;-81
2022/05/24 01:04:11;;;;;;;20.08;10.88;;;;;;;11.10;70.81;100163.46;1650210;84;26196;-80
2022/05/24 01:06:38;;;;;;;15.50;11.55;;;;;;;11.06;70.79;100165.40;1673106;85;25709;-80
2022/05/24 01:09:11;;;;;;;17.48;11.00;;;;;;;11.03;70.97;100170.67;1681466;82;26276;-81
2022/05/24 01:11:43;;;;;;;14.63;11.48;;;;;;;11.01;70.96;100167.88;1674174;84;25824;-80
2022/05/24 01:14:12;;;;;;;13.48;11.18;;;;;;;10.96;71.06;100167.13;1640616;85;28287;-81
2022/05/24 01:16:39;;;;;;;17.30;12.28;;;;;;;10.93;71.13;100168.85;1680887;84;26589;-81
2022/05/24 01:19:10;;;;;;;16.95;10.85;;;;;;;10.92;71.13;100167.22;1639805;85;25806;-80
2022/05/24 01:21:38;;;;;;;20.25;11.33;;;;;;;10.90;71.02;100167.09;1677292;84;26395;-80
2022/05/24 01:24:21;;;;;;;14.85;10.63;;;;;;;10.83;71.12;100163.88;1663148;84;26076;-80
2022/05/24 01:26:52;;;;;;;13.55;10.35;;;;;;;10.81;71.12;100161.08;1664633;84;27462;-80
2022/05/24 01:29:22;;;;;;;22.42;11.95;;;;;;;10.77;71.26;100161.16;1671554;84;25808;-80
2022/05/24 01:37:20;;;;;;;20.00;11.10;;;;;;;10.70;71.88;100157.62;1655921;84;25767;-80
2022/05/24 01:39:51;;;;;;;17.12;11.45;;;;;;;10.67;72.03;100158.84;1678893;84;27476;-80
2022/05/24 01:42:18;;;;;;;;;;;;;;;10.64;72.20;100153.06;1666879;84;25949;-80
2022/05/24 01:45:06;;;;;;;17.52;12.70;;;;;;;10.59;72.55;100153.64;1675984;84;25769;-80
2022/05/24 01:47:35;;;;;;;13.43;10.55;;;;;;;10.55;72.74;100149.71;1666337;84;26580;-80
2022/05/24 01:50:09;;;;;;;17.57;12.00;;;;;;;10.54;72.87;100144.56;1661541;84;25766;-80
2022/05/24 01:52:43;;;;;;;17.52;12.10;;;;;;;10.52;73.11;100147.95;1664812;84;27736;-80
2022/05/24 01:55:25;;;;;;;14.80;11.83;;;;;;;10.47;72.90;100147.70;1682959;84;25694;-80
2022/05/24 01:57:56;;;;;;;15.50;11.25;;;;;;;10.45;73.15;100149.25;1671485;84;25821;-80
2022/05/24 02:00:22;;;;;;;18.00;11.15;;;;;;;10.44;73.27;100145.41;1679326;84;26015;-81
2022/05/24 02:02:49;;;;;;;13.35;10.63;;;;;;;10.45;73.67;100139.05;1677538;84;25757;-80
2022/05/24 02:05:29;;;;;;;16.27;10.85;;;;;;;10.46;73.82;100140.68;1668904;84;27484;-80
2022/05/24 02:07:55;;;;;;;13.70;10.80;;;;;;;10.44;74.05;100138.20;1675058;84;25311;-80
2022/05/24 02:10:21;;;;;;;14.50;10.72;;;;;;;10.46;74.65;100131.31;1659969;84;25786;-80
2022/05/24 02:12:53;;;;;;;16.82;10.93;;;;;;;10.45;75.24;100135.86;1661724;84;25935;-80
2022/05/24 02:15:24;;;;;;;13.00;9.48;;;;;;;10.44;75.17;100135.53;1673976;84;26197;-80
2022/05/24 02:18:13;;;;;;;14.30;10.75;;;;;;;10.47;75.19;100135.15;1651940;84;27457;-80
2022/05/24 02:20:43;;;;;;;12.33;9.58;;;;;;;10.49;75.19;100133.10;1653682;84;25899;-80
2022/05/24 02:23:12;;;;;;;15.50;10.38;;;;;;;10.51;75.18;100132.39;1684963;84;25869;-80
2022/05/24 02:25:52;;;;;;;13.28;9.98;;;;;;;10.51;75.35;100135.57;1662068;84;25937;-81
2022/05/24 02:28:24;;;;;;;13.00;9.60;;;;;;;10.53;75.31;100133.02;1655810;84;25857;-80
2022/05/24 02:30:59;;;;;;;14.63;10.75;;;;;;;10.55;75.47;100129.63;1683711;84;28005;-80
2022/05/24 02:33:26;;;;;;;17.67;10.78;;;;;;;10.58;75.47;100129.75;1675356;84;25863;-79
2022/05/24 02:35:53;;;;;;;15.05;10.50;;;;;;;10.58;75.70;100120.38;1675814;84;25790;-80
2022/05/24 02:38:20;;;;;;;13.80;10.45;;;;;;;10.57;75.77;100122.22;1677794;84;25832;-80
2022/05/24 02:43:32;;;;;;;14.30;9.53;;;;;;;10.56;75.82;100115.73;1665726;84;27645;-80
2022/05/24 02:45:59;;;;;;;12.88;9.93;;;;;;;10.55;75.99;100112.22;1665142;84;25899;-80
2022/05/24 02:48:26;;;;;;;14.63;9.93;;;;;;;10.55;76.06;100114.06;1675499;84;25845;-80
2022/05/24 02:50:52;;;;;;;14.00;10.18;;;;;;;10.54;76.16;100101.18;1679615;84;25985;-80
2022/05/24 02:53:19;;;;;;;18.50;10.63;;;;;;;10.52;76.03;100101.09;1665754;84;25896;-80
2022/05/24 02:55:45;;;;;;;14.98;8.93;;;;;;;10.53;76.30;100098.70;1660915;84;27467;-80
2022/05/24 02:58:11;;;;;;;15.13;10.23;;;;;;;10.52;76.48;100101.89;1673807;84;25947;-80
2022/05/24 03:00:38;;;;;;;14.00;10.30;;;;;;;10.49;76.74;100109.00;1670793;84;25987;-80
2022/05/24 03:03:04;;;;;;;13.28;9.75;;;;;;;10.49;76.81;100109.00;1672759;84;25980;-80
2022/05/24 03:05:31;;;;;;;14.50;10.45;;;;;;;10.48;76.79;100114.03;1670909;84;25944;-80
2022/05/24 03:10:43;;;;;;;14.65;10.15;;;;;;;10.49;77.62;100096.12;1669703;84;26105;-80
2022/05/24 03:15:54;;;;;;;14.23;10.00;;;;;;;10.48;77.44;100101.14;1667875;84;26602;-80
2022/05/24 03:18:22;;;;;;;14.98;9.30;;;;;;;10.48;77.62;100094.45;1669845;84;25341;-79
2022/05/24 03:20:49;;;;;;;16.15;10.78;;;;;;;10.52;77.68;100096.53;1673407;84;28194;-80
2022/05/24 03:23:17;;;;;;;15.68;10.23;;;;;;;10.54;77.72;100099.84;1648932;84;26431;-80
2022/05/24 03:25:44;;;;;;;13.83;10.30;;;;;;;10.57;77.78;100097.28;1669681;84;25182;-80
2022/05/24 03:28:11;;;;;;;12.75;10.68;;;;;;;10.60;77.92;100098.23;1672219;84;26614;-80
2022/05/24 03:30:43;;;;;;;14.63;10.15;;;;;;;10.59;78.05;100095.23;1669528;84;25802;-80
2022/05/24 03:33:10;;;;;;;14.65;10.58;;;;;;;10.57;78.14;100090.08;1666748;84;27494;-80
2022/05/24 03:35:37;;;;;;;15.85;9.25;;;;;;;10.61;78.80;100089.16;1672032;84;25379;-80
2022/05/24 03:38:04;;;;;;;15.80;9.55;;;;;;;10.68;78.50;100092.20;1667681;84;25635;-80
2022/05/24 03:40:31;;;;;;;14.83;10.03;;;;;;;10.75;78.91;100089.05;1670084;84;25957;-79
2022/05/24 03:42:58;;;;;;;13.78;10.00;;;;;;;10.77;78.88;100083.48;1672820;84;26124;-81
2022/05/24 03:45:26;;;;;;;15.20;10.40;;;;;;;10.78;78.56;100082.44;1669352;84;28556;-81
2022/05/24 03:47:52;;;;;;;15.25;10.35;;;;;;;10.80;78.58;100083.89;1670492;84;25792;-80
2022/05/24 03:50:20;;;;;;;15.10;9.88;;;;;;;10.84;78.83;100079.78;1667077;84;25839;-79
2022/05/24 03:52:46;;;;;;;15.18;11.03;;;;;;;10.88;78.79;100083.70;1668096;84;25855;-80
2022/05/24 03:55:13;;;;;;;16.48;10.55;;;;;;;10.91;79.26;100078.97;1672024;84;25569;-80
2022/05/24 04:00:25;;;;;;;15.05;9.45;;;;;;;11.01;79.16;100085.63;1669163;84;25853;-80
2022/05/24 04:02:51;;;;;;;12.75;9.43;;;;;;;11.08;79.05;100077.58;1660090;84;25798;-80
2022/05/24 04:05:18;;;;;;;13.50;9.28;;;;;;;11.15;79.18;100085.13;1673118;84;25814;-79
2022/05/24 04:07:44;;;;;;;13.65;9.38;;;;;;;11.23;79.16;100079.57;1686958;84;25753;-80
2022/05/24 04:10:13;;;;;;;12.55;9.33;;;;;;;11.32;79.36;100083.21;1664347;84;27038;-80
2022/05/24 04:12:40;;;;;;;13.62;9.65;;;;;;;11.43;79.22;100083.95;1661298;84;25841;-79
2022/05/24 04:15:07;;;;;;;14.58;9.78;;;;;;;11.52;79.23;100081.90;1671408;84;25827;-80
2022/05/24 04:17:34;;;;;;;13.28;9.48;;;;;;;11.58;79.16;100082.41;1670359;84;26491;-79
2022/05/24 04:20:00;;;;;;;13.75;10.03;;;;;;;11.68;78.87;100086.05;1668902;84;25984;-80
2022/05/24 04:22:26;;;;;;;16.80;10.13;;;;;;;11.74;78.92;100079.34;1668842;84;27645;-79
2022/05/24 04:24:53;;;;;;;15.58;9.95;;;;;;;11.81;78.90;100080.17;1667916;84;25761;-80
2022/05/24 04:27:19;;;;;;;14.78;10.00;;;;;;;11.87;78.82;100080.68;1668364;84;25773;-79
2022/05/24 04:29:45;;;;;;;14.50;10.50;;;;;;;11.93;78.93;100084.41;1667936;84;26005;-79
2022/05/24 04:32:11;;;;;;;12.50;9.53;;;;;;;11.97;78.66;100087.81;1667003;84;26615;-80
2022/05/24 04:34:38;;;;;;;14.13;9.93;;;;;;;12.05;78.88;100090.28;1666020;84;27478;-80
2022/05/24 04:37:08;;;;;;;13.25;8.85;;;;;;;12.14;79.09;100087.69;1668245;84;26557;-79
2022/05/24 04:39:35;;;;;;;12.43;9.73;;;;;;;12.24;78.78;100087.24;1667963;84;26502;-80
2022/05/24 04:45:00;;;;;;;15.23;9.55;;;;;;;12.45;78.89;100079.44;1669599;84;25812;-79
2022/05/24 04:47:30;;;;;;;13.20;10.20;;;;;;;12.57;78.79;100090.68;1658335;84;27666;-80
2022/05/24 04:50:00;;;;;;;15.55;9.90;;;;;;;12.67;78.47;100095.08;1647668;84;26131;-80
2022/05/24 04:52:31;;;;;;;13.40;9.53;;;;;;;12.77;78.31;100091.92;1669716;84;25830;-80
2022/05/24 04:54:57;;;;;;;;;;;;;;;12.88;78.24;100093.95;1655605;84;26276;-80
2022/05/24 04:57:24;;;;;;;12.93;9.43;;;;;;;12.96;78.09;100085.13;1671807;84;25837;-80
2022/05/24 04:59:50;;;;;;;12.03;9.25;;;;;;;13.05;77.92;100085.73;1673070;84;27562;-80
2022/05/24 05:02:19;;;;;;;10.43;9.03;;;;;;;13.14;77.86;100083.94;1689673;84;25958;-80
2022/05/24 05:04:46;;;;;;;11.65;8.90;;;;;;;13.23;77.60;100090.39;1661617;84;25681;-79
2022/05/24 05:07:12;;;;;;;15.98;9.05;;;;;;;13.32;77.28;100084.56;1656247;84;26219;-79
2022/05/24 05:09:38;;;;;;;12.78;8.78;;;;;;;13.42;77.21;100089.44;1675210;84;25873;-78
2022/05/24 05:12:09;;;;;;;10.45;8.25;;;;;;;13.52;76.82;100091.95;1673023;84;27012;-79
2022/05/24 05:14:37;;;;;;;10.78;8.68;;;;;;;13.61;77.08;100086.62;1668078;84;25982;-79
2022/05/24 05:17:06;;;;;;;14.70;8.93;;;;;;;13.71;76.73;100086.11;1670742;84;25799;-78
2022/05/24 05:19:32;;;;;;;11.38;8.20;;;;;;;13.80;76.48;100090.19;1660596;84;26553;-79
2022/05/24 05:21:59;;;;;;;11.33;7.92;;;;;;;13.91;76.16;100094.86;1675799;84;25768;-79
2022/05/24 05:24:25;;;;;;;10.48;8.15;;;;;;;14.01;75.53;100090.34;1682072;84;28262;-79
2022/05/24 05:26:51;;;;;;;10.90;7.80;;;;;;;14.07;75.22;100096.98;1672759;84;25325;-79
2022/05/24 05:31:16;;;;;;;12.03;8.18;;;;;;;14.13;75.35;100100.16;1673604;84;25856;-79
2022/05/24 05:31:46;;;;;;;13.22;8.18;;;;;;;14.23;75.47;100096.42;1679765;84;26005;-80
2022/05/24 05:34:12;;;;;;;10.13;7.65;;;;;;;14.32;75.50;100100.52;1647734;84;25902;-79
2022/05/24 05:36:38;;;;;;;11.78;8.25;;;;;;;14.43;74.97;100097.09;1667335;84;27634;-80
2022/05/24 05:39:05;;;;;;;13.72;8.35;;;;;;;14.52;74.81;100097.06;1675897;84;26033;-80
2022/05/24 05:41:32;;;;;;;8.38;6.87;;;;;;;14.65;74.30;100085.31;1676030;84;26449;-79
2022/05/24 05:43:59;;;;;;;7.75;6.78;;;;;;;14.76;73.98;100083.73;1678885;84;25858;-79
2022/05/24 05:46:27;;;;;;;8.00;6.35;;;;;;;14.85;73.73;100089.95;1676407;84;25937;-80
2022/05/24 05:48:54;;;;;;;7.28;6.00;;;;;;;14.99;73.44;100079.28;1674424;84;27527;-79
2022/05/24 05:51:21;;;;;;;7.58;6.05;;;;;;;15.11;72.55;100073.42;1665345;84;25944;-80
2022/05/24 05:53:49;;;;;;;6.87;6.05;;;;;;;15.24;72.79;100070.55;1677594;84;25924;-80
2022/05/24 05:56:22;;;;;;;8.95;5.62;;;;;;;15.38;72.42;100069.28;1668395;84;25832;-80
2022/05/24 05:58:49;;;;;;;7.62;5.55;;;;;;;15.54;72.00;100065.14;1661355;84;25949;-80
2022/05/24 06:01:20;;;;;;;10.23;4.83;;;;;;;15.66;70.92;100064.63;1669627;84;27498;-80
2022/05/24 06:03:49;;;;;;;7.05;4.45;;;;;;;15.80;70.40;100062.53;1671150;84;26018;-80
2022/05/24 06:06:22;;;;;;;5.58;3.87;;;;;;;15.92;70.10;100068.76;1659698;84;25881;-80
2022/05/24 06:08:48;;;;;;;6.97;3.52;;;;;;;16.03;68.71;100083.63;1684541;84;25676;-80
2022/05/24 06:11:15;;;;;;;6.30;3.83;;;;;;;16.11;67.55;100074.34;1667891;84;25776;-80
2022/05/24 06:13:41;;;;;;;11.25;5.70;;;;;;;16.20;67.17;100068.88;1649941;84;27449;-80
2022/05/24 06:16:10;;;;;;;7.10;3.10;;;;;;;16.29;66.59;100071.53;1677766;84;25837;-80
2022/05/24 06:18:37;;;;;;;5.87;3.72;;;;;;;16.37;65.20;100069.80;1672407;84;25926;-80
2022/05/24 06:21:04;;;;;;;9.35;3.58;;;;;;;16.46;64.92;100074.31;1687282;84;26334;-80
2022/05/24 06:23:31;;;;;;;4.08;3.40;;;;;;;16.56;64.20;100072.69;1676096;84;25818;-80
2022/05/24 06:25:58;;;;;;;4.03;3.20;;;;;;;16.60;62.89;100066.26;1676383;84;28119;-80
2022/05/24 06:28:26;;;;;;;7.75;3.27;;;;;;;16.66;63.92;100078.82;1676054;85;25340;-80
2022/05/24 06:30:53;;;;;;;4.80;3.40;;;;;;;16.74;63.58;100077.12;1672633;84;25868;-80
2022/05/24 06:33:19;;;;;;;4.83;2.75;;;;;;;16.80;64.19;100078.86;1656604;84;25822;-80
2022/05/24 06:35:45;;;;;;;5.55;3.35;;;;;;;16.88;62.58;100078.48;1663876;84;25956;-80
2022/05/24 06:38:12;;;;;;;4.10;2.72;;;;;;;16.93;61.19;100074.01;1656287;84;27466;-80
2022/05/24 06:40:38;;;;;;;7.12;2.90;;;;;;;16.96;62.09;100065.91;1649348;84;25744;-80
2022/05/24 06:43:05;;;;;;;7.62;3.30;;;;;;;16.98;60.70;100074.09;1660793;84;25924;-80
2022/05/24 06:45:33;;;;;;;4.47;3.00;;;;;;;17.04;60.22;100062.84;1651063;84;25816;-80
2022/05/24 06:48:02;;;;;;;7.72;3.12;;;;;;;17.12;59.92;100067.03;1675888;84;26309;-80
2022/05/24 06:50:28;;;;;;;7.70;3.62;;;;;;;17.13;59.88;100063.28;1661044;84;27465;-80
2022/05/24 06:52:56;;;;;;;6.20;2.80;;;;;;;17.12;59.95;100072.45;1675066;84;25853;-79
2022/05/24 06:55:24;;;;;;;7.65;3.27;;;;;;;17.19;60.25;100066.37;1661499;84;26520;-80
2022/05/24 06:57:51;;;;;;;5.92;3.02;;;;;;;17.27;57.17;100055.14;1671254;84;26307;-80
2022/05/24 07:03:09;;;;;;;5.10;2.60;;;;;;;17.44;58.51;100055.46;1609911;88;27723;-80
2022/05/24 07:05:36;;;;;;;6.83;3.10;;;;;;;17.53;57.80;100054.03;1651124;85;25928;-80
2022/05/24 07:08:04;;;;;;;4.50;2.25;;;;;;;17.61;58.17;100061.75;1667077;84;25431;-80
2022/05/24 07:10:33;;;;;;;7.40;2.62;;;;;;;17.75;56.96;100055.45;1659499;84;26421;-79
2022/05/24 07:13:08;;;;;;;6.22;2.47;;;;;;;17.87;55.86;100055.38;1662210;85;25905;-80
2022/05/24 07:15:34;;;;;;;4.45;2.65;;;;;;;18.01;56.53;100060.20;1686458;84;28277;-80
2022/05/24 07:18:01;;;;;;;4.40;2.40;;;;;;;18.17;54.73;100054.48;1668943;84;26279;-79
2022/05/24 07:20:29;;;;;;;7.20;2.90;;;;;;;18.32;53.27;100050.64;1659297;84;26022;-80
2022/05/24 07:22:59;;;;;;;8.53;2.92;;;;;;;18.43;54.22;100054.58;1683877;84;25832;-80
2022/05/24 07:25:25;;;;;;;7.62;2.50;;;;;;;18.50;53.23;100052.27;1673859;84;25361;-80
2022/05/24 07:27:51;;;;;;;6.35;2.52;;;;;;;18.55;53.87;100052.31;1675362;84;27573;-80
2022/05/24 07:30:18;;;;;;;6.87;2.58;;;;;;;18.63;53.92;100049.98;1675759;84;26612;-80
2022/05/24 07:32:45;;;;;;;3.37;2.67;;;;;;;18.74;54.11;100053.11;1655062;84;26392;-80
2022/05/24 07:35:12;;;;;;;7.42;2.40;;;;;;;18.85;52.67;100062.20;1656507;84;26792;-80
2022/05/24 07:37:38;;;;;;;3.95;2.58;;;;;;;18.88;51.85;100063.85;1659267;84;25778;-81
2022/05/24 07:48:12;;;;;;;2.77;2.10;;;;;;;18.86;51.82;100066.00;1667721;85;26690;-80
2022/05/24 07:50:39;;;;;;;3.58;2.58;;;;;;;18.87;49.94;100054.09;1676299;84;25834;-80
2022/05/24 07:53:06;;;;;;;4.70;2.50;;;;;;;18.87;51.51;100054.09;1656399;84;28361;-80
2022/05/24 07:55:32;;;;;;;6.25;2.62;;;;;;;18.93;51.00;100057.67;1676204;84;26001;-80
2022/05/24 07:57:59;;;;;;;6.30;2.67;;;;;;;18.95;49.98;100053.63;1674877;84;25546;-80
2022/05/24 08:00:25;;;;;;;5.45;2.30;;;;;;;18.96;49.75;100055.81;1666255;84;26521;-81
2022/05/24 08:02:53;;;;;;;5.42;2.37;;;;;;;19.02;50.52;100046.12;1674701;84;25821;-81
2022/05/24 08:05:21;;;;;;;3.70;2.35;;;;;;;19.10;50.80;100049.72;1676592;84;27483;-80
2022/05/24 08:07:49;;;;;;;6.80;2.50;;;;;;;19.16;50.62;100043.83;1676437;84;25857;-80
2022/05/24 08:10:17;;;;;;;8.00;2.25;;;;;;;19.19;49.51;100045.48;1675006;85;25827;-80
2022/05/24 08:12:43;;;;;;;6.97;2.20;;;;;;;19.21;49.75;100044.69;1677788;84;25816;-80
2022/05/24 08:15:10;;;;;;;4.80;3.02;;;;;;;19.25;50.11;100047.17;1695804;84;25934;-80
2022/05/24 08:17:37;;;;;;;4.65;2.65;;;;;;;19.35;50.51;100047.03;1652844;85;28275;-80
2022/05/24 08:20:06;;;;;;;4.42;2.20;;;;;;;19.43;50.04;100047.37;1664378;85;25663;-80
2022/05/24 08:22:32;;;;;;;3.02;2.50;;;;;;;19.50;50.59;100045.28;1661939;84;26515;-80
2022/05/24 08:24:58;;;;;;;2.58;2.10;;;;;;;19.59;51.00;100046.98;1663850;84;25847;-80
2022/05/24 08:27:24;;;;;;;5.22;2.33;;;;;;;19.69;50.96;100042.98;1665033;84;26586;-80
2022/05/24 08:29:51;;;;;;;3.75;2.35;;;;;;;19.75;50.75;100042.77;1685891;84;27649;-80
2022/05/24 08:32:17;;;;;;;2.67;2.00;;;;;;;19.76;50.01;100038.95;1675205;84;25980;-79
2022/05/24 08:34:44;;;;;;;3.65;2.67;;;;;;;19.72;49.12;100043.80;1667747;84;25825;-80
2022/05/24 08:37:11;;;;;;;6.42;2.25;;;;;;;19.69;48.82;100045.17;1684521;84;26481;-80
2022/05/24 08:39:37;;;;;;;7.50;2.30;;;;;;;19.68;48.95;100042.16;1664877;85;26282;-80
2022/05/24 08:42:27;;;;;;;3.02;1.87;;;;;;;19.68;49.93;100038.08;1672747;85;27486;-80
2022/05/24 08:48:26;;;;;;;3.02;2.05;;;;;;;19.79;49.99;100034.37;1668529;84;26276;-80
2022/05/24 08:51:04;;;;;;;3.45;2.30;;;;;;;19.89;49.56;100041.23;1675203;84;26712;-80
2022/05/24 08:53:48;;;;;;;6.03;1.90;;;;;;;19.97;49.16;100040.73;1663509;84;25868;-80
2022/05/24 08:56:37;;;;;;;5.22;2.45;;;;;;;20.10;50.02;100034.59;1658511;84;27646;-80
2022/05/24 08:59:34;;;;;;;4.83;1.92;;;;;;;20.27;49.17;100036.09;1656382;84;26600;-80
2022/05/24 09:02:01;;;;;;;4.92;2.55;;;;;;;20.34;48.51;100032.57;1667919;84;26234;-80
2022/05/24 09:04:30;;;;;;;4.00;2.35;;;;;;;20.33;47.35;100035.56;1684588;84;25780;-80
2022/05/24 09:07:19;;;;;;;3.45;2.42;;;;;;;20.37;46.11;100034.77;1664076;84;25736;-80
2022/05/24 09:10:06;;;;;;;9.40;2.17;;;;;;;20.40;47.44;100036.95;1671520;84;27464;-80
2022/05/24 09:12:57;;;;;;;2.15;1.72;;;;;;;20.42;46.99;100032.06;1675091;84;25757;-80
2022/05/24 09:16:14;;;;;;;4.75;1.98;;;;;;;20.44;46.53;100019.58;1658999;84;25771;-80
2022/05/24 09:18:58;;;;;;;3.75;2.10;;;;;;;20.42;46.66;100024.47;1663233;84;25560;-80
2022/05/24 09:21:31;;;;;;;3.85;1.85;;;;;;;20.38;45.68;100028.80;1666946;84;25982;-80
2022/05/24 09:24:36;;;;;;;7.60;1.80;;;;;;;20.40;45.75;100023.34;1650922;85;27488;-80
2022/05/24 09:27:18;;;;;;;3.22;1.72;;;;;;;20.37;44.64;100032.05;1664181;84;25322;-81
2022/05/24 09:30:04;;;;;;;6.33;2.30;;;;;;;20.34;45.62;100031.21;1671309;84;25526;-80
2022/05/24 09:32:44;;;;;;;5.30;2.20;;;;;;;20.36;44.13;100030.97;1670402;84;27280;-80
2022/05/24 09:35:25;;;;;;;4.90;1.92;;;;;;;20.30;44.82;100024.66;1653917;84;25834;-80
2022/05/24 09:38:08;;;;;;;;;;;;;;;20.32;45.54;100025.75;1665228;84;27473;-80
2022/05/24 09:40:55;;;;;;;4.08;2.17;;;;;;;20.31;45.57;100033.12;1663227;84;25425;-80
2022/05/24 09:43:33;;;;;;;5.58;2.22;;;;;;;20.31;46.29;100040.45;1666479;84;25791;-80
2022/05/24 09:46:13;;;;;;;6.45;2.15;;;;;;;20.28;44.87;100028.72;1658729;84;26190;-80
2022/05/24 09:48:53;;;;;;;4.90;2.00;;;;;;;20.21;44.57;100037.12;1665512;84;25918;-81
2022/05/24 09:51:25;;;;;;;3.65;1.98;;;;;;;20.17;45.34;100035.15;1650941;84;27519;-80
2022/05/24 09:53:54;;;;;;;4.33;2.02;;;;;;;20.14;45.86;100036.52;1682673;84;25317;-80
2022/05/24 09:56:33;;;;;;;3.02;2.10;;;;;;;20.16;46.07;100033.53;1666550;84;25850;-80
2022/05/24 09:59:04;;;;;;;3.65;2.30;;;;;;;20.17;45.55;100031.90;1662913;84;26806;-80
2022/05/24 10:01:43;;;;;;;5.20;2.00;;;;;;;20.16;45.36;100024.02;1670174;84;25835;-81
2022/05/24 10:04:29;;;;;;;5.87;2.00;;;;;;;20.16;45.60;100030.81;1669678;84;27499;-81
2022/05/24 10:07:03;;;;;;;4.35;1.98;;;;;;;20.16;44.96;100038.44;1668146;84;25517;-80
2022/05/24 10:09:45;;;;;;;3.70;2.10;;;;;;;20.14;44.80;100035.16;1675740;84;25698;-81
2022/05/24 10:12:34;;;;;;;6.22;2.20;;;;;;;20.14;44.85;100032.97;1663733;84;25862;-81
2022/05/24 10:15:25;;;;;;;5.03;2.10;;;;;;;20.12;44.97;100022.91;1665215;84;25847;-80
2022/05/24 10:18:11;;;;;;;5.20;2.27;;;;;;;20.12;45.38;100021.55;1668211;84;28280;-80
2022/05/24 10:20:49;;;;;;;4.37;1.92;;;;;;;20.15;45.64;100022.36;1642823;85;25691;-81
2022/05/24 10:23:41;;;;;;;5.83;2.20;;;;;;;20.17;45.59;100014.75;1660609;84;25735;-81
2022/05/24 10:26:31;;;;;;;6.33;2.22;;;;;;;20.22;45.87;100016.19;1654704;84;26393;-81
2022/05/24 10:29:05;;;;;;;7.35;2.33;;;;;;;20.19;45.62;100010.70;1656751;84;26029;-80
2022/05/24 10:31:54;;;;;;;5.45;2.10;;;;;;;20.18;45.40;100012.33;1673591;85;28276;-80
2022/05/24 10:41:04;;;;;;;6.50;2.20;;;;;;;20.10;45.58;100015.55;1673308;84;26793;-81
2022/05/24 10:43:50;;;;;;;4.67;1.90;;;;;;;20.10;45.68;100008.75;1659247;85;25771;-80
2022/05/24 10:46:28;;;;;;;2.10;1.90;;;;;;;20.13;46.48;100007.67;1680200;84;28309;-80
2022/05/24 10:49:35;;;;;;;4.00;2.45;;;;;;;20.20;46.48;100008.30;1662769;84;25822;-80
2022/05/24 10:52:18;;;;;;;4.75;2.35;;;;;;;20.30;47.17;100015.14;1682647;84;25752;-80
2022/05/24 10:54:56;;;;;;;2.58;2.12;;;;;;;20.40;47.01;100010.31;1673822;84;25748;-80
2022/05/24 10:57:33;;;;;;;2.00;1.70;;;;;;;20.47;45.87;100012.23;1653132;85;25640;-80
2022/05/24 11:00:12;;;;;;;5.95;2.37;;;;;;;20.55;46.44;100007.66;1675559;84;27542;-80
2022/05/24 11:02:58;;;;;;;2.87;1.95;;;;;;;20.63;46.59;100005.78;1648669;84;25931;-80
2022/05/24 11:05:33;;;;;;;5.83;2.30;;;;;;;20.72;46.53;100006.34;1659995;84;26552;-80
2022/05/24 11:08:31;;;;;;;5.42;2.40;;;;;;;20.76;45.88;100002.00;1643847;84;25895;-80
2022/05/24 11:11:04;;;;;;;2.27;1.98;;;;;;;20.80;45.88;100006.38;1675408;84;25837;-80
2022/05/24 11:14:02;;;;;;;3.72;2.05;;;;;;;20.85;45.51;100001.50;1672230;84;28304;-80
2022/05/24 11:16:46;;;;;;;3.50;1.80;;;;;;;20.90;45.63;100002.31;1659518;84;25823;-80
2022/05/24 11:19:21;;;;;;;5.40;2.17;;;;;;;20.98;46.11;100009.95;1646200;84;26011;-81
2022/05/24 11:22:12;;;;;;;4.42;2.08;;;;;;;21.09;46.24;100006.73;1680557;84;25949;-81
2022/05/24 11:25:11;;;;;;;4.70;2.12;;;;;;;21.18;45.54;100014.13;1645403;84;25924;-81
2022/05/24 11:27:42;;;;;;;3.02;1.80;;;;;;;21.24;45.57;100006.77;1658475;84;27387;-80
2022/05/24 11:30:29;;;;;;;3.55;1.77;;;;;;;21.31;44.68;100005.42;1664352;84;26038;-80
2022/05/24 11:33:09;;;;;;;4.15;1.85;;;;;;;21.32;43.24;100016.58;1674899;84;25826;-80
2022/05/24 11:35:52;;;;;;;3.93;2.07;;;;;;;21.34;44.70;100010.88;1666288;84;25839;-80
2022/05/24 11:38:31;;;;;;;2.20;1.85;;;;;;;21.41;44.52;100007.33;1662335;84;26094;-80
2022/05/24 11:41:07;;;;;;;7.58;1.95;;;;;;;21.46;44.52;100010.89;1661637;84;27524;-80
2022/05/24 11:43:46;;;;;;;2.33;1.40;;;;;;;21.50;44.01;100016.06;1656196;84;25526;-80
2022/05/24 11:46:44;;;;;;;3.70;1.62;;;;;;;21.50;44.64;100020.15;1670107;84;26496;-80
2022/05/24 11:49:27;;;;;;;2.60;1.75;;;;;;;21.51;44.36;100021.77;1680551;84;26013;-81
2022/05/24 11:51:56;;;;;;;4.15;1.65;;;;;;;21.49;44.03;100017.14;1648224;84;26151;-80
2022/05/24 11:54:28;;;;;;;2.40;1.72;;;;;;;21.41;43.29;100018.22;1656240;84;27495;-80
2022/05/24 11:57:06;;;;;;;5.15;1.92;;;;;;;21.39;43.94;100021.23;1676276;84;25351;-80
2022/05/24 11:59:46;;;;;;;2.92;1.67;;;;;;;21.40;43.99;100014.70;1654302;84;25989;-81
2022/05/24 12:07:54;;;;;;;1.75;1.65;;;;;;;21.40;43.35;100020.16;1662832;84;26386;-80
2022/05/24 12:08:31;;;;;;;1.92;1.57;;;;;;;21.27;43.34;100030.22;1674482;84;27478;-80
2022/05/24 12:11:14;;;;;;;3.05;1.85;;;;;;;21.21;43.79;100029.91;1662822;84;26162;-80
2022/05/24 12:13:56;;;;;;;3.72;1.80;;;;;;;21.19;44.20;100032.66;1664682;84;26581;-80
2022/05/24 12:16:49;;;;;;;1.65;1.55;;;;;;;21.11;43.66;100023.63;1667354;84;25909;-80
2022/05/24 12:19:42;;;;;;;3.10;1.50;;;;;;;21.02;44.22;100020.58;1655277;84;25822;-80
2022/05/24 12:22:16;;;;;;;3.62;1.70;;;;;;;20.98;44.00;100020.05;1685214;84;27489;-80
2022/05/24 12:24:47;;;;;;;3.83;1.52;;;;;;;20.91;43.87;100027.11;1650469;84;26638;-80
2022/05/24 12:27:45;;;;;;;2.85;1.42;;;;;;;20.87;43.75;100023.26;1656011;84;25677;-80